createdAt,value
2023-01-14T00:01:57.830Z,8.13
2023-01-14T00:07:00.387Z,7.93
2023-01-14T00:12:03.119Z,6.90
2023-01-14T00:17:05.704Z,6.97
2023-01-14T00:22:08.460Z,5.63
2023-01-14T00:27:12.929Z,5.13
2023-01-14T00:32:15.592Z,6.07
2023-01-14T00:37:20.639Z,5.27
2023-01-14T00:42:25.751Z,6.10
2023-01-14T00:47:28.445Z,6.37
2023-01-14T00:52:30.940Z,6.10
2023-01-14T00:57:33.644Z,5.97
2023-01-14T01:02:36.276Z,5.50
2023-01-14T01:07:39.331Z,6.00
2023-01-14T01:12:41.881Z,5.90
2023-01-14T01:17:44.297Z,5.90
2023-01-14T01:22:46.848Z,3.20
2023-01-14T01:27:49.431Z,3.67
2023-01-14T01:32:54.133Z,4.00
2023-01-14T01:37:56.829Z,5.60
2023-01-14T01:43:01.695Z,4.30
2023-01-14T01:48:13.583Z,5.37
2023-01-14T01:53:17.299Z,5.47
2023-01-14T01:58:21.187Z,5.30
2023-01-14T02:03:33.701Z,4.67
2023-01-14T02:08:39.607Z,4.47
2023-01-14T02:13:58.275Z,5.23
2023-01-14T02:19:27.049Z,3.93
2023-01-14T02:24:41.383Z,5.57
2023-01-14T02:29:53.601Z,5.87
2023-01-14T02:35:05.537Z,3.70
2023-01-14T02:40:34.479Z,4.73
2023-01-14T02:45:48.087Z,4.07
2023-01-14T02:50:51.745Z,5.30
2023-01-14T02:55:56.324Z,3.40
2023-01-14T03:01:19.800Z,4.13
2023-01-14T03:06:48.675Z,3.63
2023-01-14T03:12:03.062Z,4.10
2023-01-14T03:17:19.516Z,4.37
2023-01-14T03:22:22.171Z,3.77
2023-01-14T03:27:28.671Z,2.90
2023-01-14T03:32:40.904Z,3.37
2023-01-14T03:37:50.575Z,5.27
2023-01-14T03:42:58.787Z,4.33
2023-01-14T03:48:01.723Z,4.53
2023-01-14T03:53:25.963Z,4.33
2023-01-14T03:58:28.360Z,3.40
2023-01-14T04:03:31.055Z,3.53
2023-01-14T04:08:33.631Z,3.40
2023-01-14T04:14:14.791Z,4.90
2023-01-14T04:19:17.725Z,2.20
2023-01-14T04:24:20.298Z,4.60
2023-01-14T04:29:22.931Z,2.93
2023-01-14T04:34:25.388Z,4.13
2023-01-14T04:39:28.057Z,3.73
2023-01-14T04:44:32.215Z,3.60
2023-01-14T04:49:34.663Z,3.90
2023-01-14T04:54:37.149Z,3.23
2023-01-14T04:59:39.779Z,3.50
2023-01-14T05:04:42.295Z,3.67
2023-01-14T05:09:44.872Z,3.53
2023-01-14T05:14:47.360Z,4.47
2023-01-14T05:19:49.860Z,3.50
2023-01-14T05:24:52.281Z,2.93
2023-01-14T05:29:54.850Z,4.20
2023-01-14T05:34:57.444Z,3.83
2023-01-14T05:40:00.129Z,3.03
2023-01-14T05:45:21.051Z,2.87
2023-01-14T05:50:23.815Z,3.73
2023-01-14T05:55:26.315Z,2.87
2023-01-14T06:00:47.693Z,3.07
2023-01-14T06:06:08.679Z,2.93
2023-01-14T06:11:11.181Z,3.70
2023-01-14T06:16:13.761Z,2.80
2023-01-14T06:21:19.318Z,2.70
2023-01-14T06:26:22.390Z,2.60
2023-01-14T06:31:25.073Z,3.57
2023-01-14T06:36:27.612Z,3.97
2023-01-14T06:41:30.157Z,3.00
2023-01-14T06:46:32.770Z,3.20
2023-01-14T06:51:35.323Z,3.20
2023-01-14T06:56:37.899Z,3.43
2023-01-14T07:01:40.541Z,3.63
2023-01-14T07:06:43.153Z,3.60
2023-01-14T07:11:45.611Z,3.73
2023-01-14T07:16:48.593Z,3.63
2023-01-14T07:21:51.065Z,3.37
2023-01-14T07:26:53.688Z,3.47
2023-01-14T07:31:56.206Z,3.63
2023-01-14T07:36:58.766Z,3.20
2023-01-14T07:42:01.305Z,4.10
2023-01-14T07:47:05.963Z,3.63
2023-01-14T07:52:13.595Z,4.10
2023-01-14T07:57:16.161Z,4.57
2023-01-14T08:02:18.592Z,4.43
2023-01-14T08:07:21.135Z,3.23
2023-01-14T08:12:23.685Z,3.50
2023-01-14T08:17:26.233Z,3.53
2023-01-14T08:22:30.383Z,3.97
2023-01-14T08:27:33.301Z,3.60
2023-01-14T08:32:35.869Z,3.87
2023-01-14T08:37:38.483Z,4.17
2023-01-14T08:42:40.979Z,4.23
2023-01-14T08:47:43.431Z,3.63
2023-01-14T08:52:46.055Z,3.50
2023-01-14T08:57:48.589Z,3.53
2023-01-14T09:02:51.195Z,3.50
2023-01-14T09:08:14.864Z,3.40
2023-01-14T09:13:36.123Z,3.90
2023-01-14T09:18:39.024Z,3.80
2023-01-14T09:23:41.983Z,4.73
2023-01-14T09:28:44.624Z,3.00
2023-01-14T09:33:47.244Z,2.90
2023-01-14T09:38:49.945Z,3.10
2023-01-14T09:43:53.348Z,2.80
2023-01-14T09:48:58.334Z,3.70
2023-01-14T09:54:15.018Z,3.70
2023-01-14T09:59:26.913Z,3.17
2023-01-14T10:04:54.179Z,3.33
2023-01-14T10:10:06.544Z,3.49
2023-01-14T10:15:33.007Z,3.70
2023-01-14T10:20:50.533Z,3.60
2023-01-14T10:25:55.195Z,3.37
2023-01-14T10:31:00.750Z,3.10
2023-01-14T10:36:06.981Z,3.30
2023-01-14T10:41:24.950Z,3.50
2023-01-14T10:46:28.095Z,2.83
2023-01-14T10:51:39.237Z,3.33
2023-01-14T10:56:50.181Z,3.07
2023-01-14T11:01:59.695Z,2.70
2023-01-14T11:07:18.854Z,3.50
2023-01-14T11:12:34.169Z,3.60
2023-01-14T11:17:36.704Z,3.07
2023-01-14T11:22:39.433Z,3.27
2023-01-14T11:27:48.793Z,3.30
2023-01-14T11:32:53.332Z,3.37
2023-01-14T11:37:57.513Z,3.63
2023-01-14T11:43:10.730Z,2.63
2023-01-14T11:48:30.192Z,5.10
2023-01-14T11:53:49.784Z,3.73
2023-01-14T11:58:52.352Z,4.00
2023-01-14T12:04:01.535Z,3.47
2023-01-14T12:09:06.980Z,3.93
2023-01-14T12:14:33.552Z,3.73
2023-01-14T12:19:47.495Z,5.07
2023-01-14T12:25:01.794Z,3.90
2023-01-14T12:30:07.273Z,3.53
2023-01-14T12:35:15.810Z,3.23
2023-01-14T12:41:12.139Z,3.50
2023-01-14T12:46:14.965Z,4.10
2023-01-14T12:51:26.713Z,6.47
2023-01-14T12:56:33.862Z,4.50
2023-01-14T13:01:43.053Z,5.70
2023-01-14T13:06:47.735Z,6.93
2023-01-14T13:11:54.038Z,5.13
2023-01-14T13:17:17.131Z,7.20
2023-01-14T13:22:39.678Z,5.17
2023-01-14T13:27:44.333Z,4.63
2023-01-14T13:32:54.668Z,6.90
2023-01-14T13:37:59.862Z,4.07
2023-01-14T13:43:25.648Z,4.23
2023-01-14T13:48:37.620Z,3.83
2023-01-14T13:53:41.036Z,3.80
2023-01-14T13:58:50.356Z,4.73
2023-01-14T14:03:59.968Z,3.70
2023-01-14T14:09:07.368Z,3.50
2023-01-14T14:14:21.737Z,3.70
2023-01-14T14:19:53.565Z,3.80
2023-01-14T14:24:58.831Z,4.43
2023-01-14T14:30:34.827Z,3.43
2023-01-14T14:35:42.547Z,3.90
2023-01-14T14:40:45.340Z,4.27
2023-01-14T14:46:03.653Z,3.43
2023-01-14T14:51:44.310Z,3.27
2023-01-14T14:56:47.913Z,4.73
2023-01-14T15:01:50.595Z,3.20
2023-01-14T15:06:54.200Z,3.20
2023-01-14T15:11:58.730Z,3.43
2023-01-14T15:17:01.573Z,5.50
2023-01-14T15:22:05.217Z,4.83
2023-01-14T15:27:13.218Z,4.40
2023-01-14T15:32:33.768Z,3.90
2023-01-14T15:37:36.647Z,5.83
2023-01-14T15:42:40.626Z,5.90
2023-01-14T15:47:43.306Z,6.73
2023-01-14T15:52:48.011Z,5.70
2023-01-14T15:57:51.706Z,4.13
2023-01-14T16:02:56.514Z,4.57
2023-01-14T16:08:06.674Z,4.43
2023-01-14T16:13:17.735Z,4.60
2023-01-14T16:18:22.162Z,4.57
2023-01-14T16:23:27.673Z,5.23
2023-01-14T16:28:34.126Z,4.93
2023-01-14T16:33:36.921Z,6.63
2023-01-14T16:38:40.505Z,6.60
2023-01-14T16:43:43.398Z,5.67
2023-01-14T16:48:47.377Z,6.57
2023-01-14T16:53:49.979Z,6.03
2023-01-14T16:58:54.405Z,5.53
2023-01-14T17:03:57.211Z,5.70
2023-01-14T17:08:59.906Z,5.33
2023-01-14T17:14:02.498Z,6.40
2023-01-14T17:19:06.157Z,6.13
2023-01-14T17:24:10.638Z,5.50
2023-01-14T17:29:14.544Z,7.57
2023-01-14T17:34:17.334Z,7.13
2023-01-14T17:39:20.134Z,5.53
2023-01-14T17:44:22.760Z,5.43
2023-01-14T17:49:25.508Z,13.13
2023-01-14T17:54:42.329Z,29.60
2023-01-14T17:59:51.057Z,11.30
2023-01-14T18:04:53.842Z,17.50
2023-01-14T18:09:56.610Z,9.47
2023-01-14T18:14:59.135Z,9.17
2023-01-14T18:20:03.686Z,6.10
2023-01-14T18:25:06.697Z,6.23
2023-01-14T18:30:10.176Z,4.50
2023-01-14T18:35:12.839Z,6.30
2023-01-14T18:40:15.658Z,6.33
2023-01-14T18:45:18.445Z,5.97
2023-01-14T18:50:21.488Z,6.27
2023-01-14T18:55:30.413Z,5.37
2023-01-14T19:00:33.218Z,4.33
2023-01-14T19:05:37.936Z,5.20
2023-01-14T19:10:40.613Z,6.23
2023-01-14T19:15:43.161Z,5.43
2023-01-14T19:20:55.245Z,9.47
2023-01-14T19:25:58.033Z,4.13
2023-01-14T19:31:08.960Z,4.57
2023-01-14T19:36:13.785Z,4.27
2023-01-14T19:41:18.309Z,5.37
2023-01-14T19:46:22.762Z,5.53
2023-01-14T19:51:26.085Z,8.57
2023-01-14T19:56:30.645Z,8.00
2023-01-14T20:01:37.996Z,7.20
2023-01-14T20:06:41.177Z,7.87
2023-01-14T20:11:44.399Z,8.17
2023-01-14T20:16:50.511Z,9.10
2023-01-14T20:21:54.003Z,6.60
2023-01-14T20:26:56.920Z,8.30
2023-01-14T20:31:59.897Z,6.90
2023-01-14T20:37:02.910Z,7.47
2023-01-14T20:42:17.776Z,5.37
2023-01-14T20:47:22.153Z,4.70
2023-01-14T20:52:26.805Z,3.90
2023-01-14T20:57:30.415Z,3.97
2023-01-14T21:02:33.824Z,6.77
2023-01-14T21:07:41.082Z,5.53
2023-01-14T21:18:49.774Z,5.97
2023-01-14T21:23:52.836Z,5.90
2023-01-14T21:28:55.807Z,5.70
2023-01-14T21:33:58.783Z,6.60
2023-01-14T21:39:01.636Z,6.60
2023-01-14T21:44:04.834Z,6.50
2023-01-14T21:49:08.016Z,6.40
2023-01-14T21:54:10.895Z,5.63
2023-01-14T21:59:13.744Z,5.70
2023-01-14T22:04:16.456Z,5.10
2023-01-14T22:09:19.092Z,5.40
2023-01-14T22:14:21.783Z,5.07
2023-01-14T22:19:24.692Z,5.93
2023-01-14T22:24:27.243Z,4.73
2023-01-14T22:29:29.816Z,4.40
2023-01-14T22:34:32.402Z,5.00
2023-01-14T22:39:35.000Z,5.10
2023-01-14T22:44:37.921Z,4.93
2023-01-14T22:49:40.552Z,4.57
2023-01-14T22:54:43.448Z,4.87
2023-01-14T22:59:46.140Z,4.30
2023-01-14T23:04:49.871Z,4.27
2023-01-14T23:09:52.459Z,4.63
2023-01-14T23:14:55.006Z,4.63
2023-01-14T23:20:05.903Z,4.00
2023-01-14T23:25:09.603Z,3.83
2023-01-14T23:30:12.784Z,4.17
2023-01-14T23:35:15.416Z,3.87
2023-01-14T23:40:18.164Z,4.20
2023-01-14T23:45:20.617Z,3.33
2023-01-14T23:50:23.193Z,4.03
2023-01-14T23:55:26.066Z,3.97
